createdAt,value
2022-10-11T00:00:45.572Z,61.69
2022-10-11T00:03:31.507Z,56.72
2022-10-11T00:06:03.761Z,56.09
2022-10-11T00:08:33.624Z,57.23
2022-10-11T00:11:07.759Z,58.56
2022-10-11T00:13:36.657Z,59.23
2022-10-11T00:16:11.309Z,60.02
2022-10-11T00:18:42.533Z,60.83
2022-10-11T00:21:15.304Z,61.65
2022-10-11T00:23:43.255Z,65.89
2022-10-11T00:26:15.048Z,65.49
2022-10-11T00:28:43.740Z,61.08
2022-10-11T00:31:18.454Z,56.36
2022-10-11T00:33:46.355Z,55.48
2022-10-11T00:36:16.762Z,56.61
2022-10-11T00:38:48.619Z,57.67
2022-10-11T00:41:17.995Z,58.13
2022-10-11T00:43:47.676Z,59.21
2022-10-11T00:46:18.758Z,59.84
2022-10-11T00:48:51.598Z,60.28
2022-10-11T00:51:28.959Z,60.86
2022-10-11T00:53:57.183Z,65.21
2022-10-11T00:56:31.479Z,64.82
2022-10-11T00:59:00.610Z,60.89
2022-10-11T01:01:28.475Z,57.03
2022-10-11T01:03:57.156Z,56.06
2022-10-11T01:06:25.831Z,57.25
2022-10-11T01:08:53.645Z,58.66
2022-10-11T01:11:25.301Z,60.17
2022-10-11T01:14:17.281Z,65.07
2022-10-11T01:17:04.539Z,64.49
2022-10-11T01:20:12.349Z,60.00
2022-10-11T01:23:43.469Z,55.20
2022-10-11T01:26:30.183Z,55.36
2022-10-11T01:29:12.723Z,56.55
2022-10-11T01:32:15.867Z,57.47
2022-10-11T01:34:59.003Z,58.10
2022-10-11T01:37:47.287Z,59.16
2022-10-11T01:40:25.451Z,59.87
2022-10-11T01:42:55.375Z,60.91
2022-10-11T01:45:24.539Z,65.15
2022-10-11T01:48:22.747Z,65.27
2022-10-11T01:50:53.802Z,61.09
2022-10-11T01:53:25.754Z,57.16
2022-10-11T01:56:10.806Z,57.75
2022-10-11T01:59:12.810Z,60.25
2022-10-11T02:02:16.812Z,66.32
2022-10-11T02:05:19.037Z,66.91
2022-10-11T02:07:52.832Z,63.75
2022-10-11T02:10:36.902Z,62.44
2022-10-11T02:13:29.155Z,60.66
2022-10-11T02:16:02.347Z,57.76
2022-10-11T02:18:34.017Z,57.89
2022-10-11T02:21:06.711Z,58.66
2022-10-11T02:23:56.898Z,60.47
2022-10-11T02:26:29.748Z,64.31
2022-10-11T02:29:01.638Z,65.26
2022-10-11T02:31:29.690Z,62.96
2022-10-11T02:34:02.862Z,62.01
2022-10-11T02:36:38.112Z,57.85
2022-10-11T02:39:25.315Z,57.30
2022-10-11T02:41:58.250Z,58.60
2022-10-11T02:44:59.758Z,60.78
2022-10-11T02:47:30.236Z,65.21
2022-10-11T02:50:00.301Z,64.21
2022-10-11T02:52:28.269Z,62.16
2022-10-11T02:54:56.338Z,60.01
2022-10-11T02:57:25.582Z,56.97
2022-10-11T02:59:53.686Z,56.76
2022-10-11T03:02:22.583Z,58.30
2022-10-11T03:04:50.654Z,59.58
2022-10-11T03:07:18.738Z,61.23
2022-10-11T03:09:46.913Z,64.73
2022-10-11T03:12:14.660Z,63.91
2022-10-11T03:14:42.486Z,62.31
2022-10-11T03:17:34.668Z,60.68
2022-10-11T03:19:58.805Z,57.03
2022-10-11T03:22:26.874Z,57.44
2022-10-11T03:24:56.644Z,58.26
2022-10-11T03:27:27.879Z,60.46
2022-10-11T03:29:58.715Z,63.18
2022-10-11T03:32:28.078Z,65.13
2022-10-11T03:34:57.049Z,62.05
2022-10-11T03:37:25.515Z,60.23
2022-10-11T03:39:53.810Z,57.62
2022-10-11T03:42:21.815Z,57.13
2022-10-11T03:44:51.892Z,58.90
2022-10-11T03:47:20.845Z,60.29
2022-10-11T03:49:49.103Z,64.72
2022-10-11T03:52:21.334Z,63.83
2022-10-11T03:54:49.338Z,61.14
2022-10-11T03:57:18.915Z,58.32
2022-10-11T03:59:48.178Z,57.60
2022-10-11T04:02:16.453Z,59.28
2022-10-11T04:04:44.473Z,60.54
2022-10-11T04:07:12.473Z,64.84
2022-10-11T04:09:40.352Z,64.66
2022-10-11T04:12:08.403Z,61.77
2022-10-11T04:14:36.993Z,59.76
2022-10-11T04:17:05.526Z,57.19
2022-10-11T04:19:33.675Z,57.24
2022-10-11T04:22:01.513Z,59.15
2022-10-11T04:24:29.540Z,60.45
2022-10-11T04:26:59.295Z,64.31
2022-10-11T04:29:31.549Z,64.82
2022-10-11T04:32:00.332Z,61.85
2022-10-11T04:34:28.216Z,60.16
2022-10-11T04:36:56.784Z,56.60
2022-10-11T04:39:24.894Z,56.75
2022-10-11T04:41:53.937Z,58.33
2022-10-11T04:44:21.881Z,60.01
2022-10-11T04:46:49.839Z,61.36
2022-10-11T04:49:17.731Z,65.14
2022-10-11T04:51:45.670Z,64.76
2022-10-11T04:54:26.575Z,61.56
2022-10-11T04:56:56.528Z,58.10
2022-10-11T04:59:24.643Z,57.71
2022-10-11T05:01:54.233Z,58.84
2022-10-11T05:04:22.187Z,59.90
2022-10-11T05:06:54.995Z,64.46
2022-10-11T05:09:23.207Z,65.26
2022-10-11T05:11:51.031Z,61.15
2022-10-11T05:14:20.186Z,57.29
2022-10-11T05:16:50.083Z,56.78
2022-10-11T05:19:17.905Z,58.39
2022-10-11T05:21:45.959Z,59.38
2022-10-11T05:24:14.367Z,60.87
2022-10-11T05:26:42.306Z,64.55
2022-10-11T05:29:10.550Z,65.00
2022-10-11T05:31:38.440Z,61.34
2022-10-11T05:34:06.295Z,57.72
2022-10-11T05:36:38.102Z,56.95
2022-10-11T05:39:06.123Z,58.28
2022-10-11T05:41:34.224Z,59.93
2022-10-11T05:44:03.323Z,61.04
2022-10-11T05:46:31.084Z,65.44
2022-10-11T05:49:00.382Z,65.65
2022-10-11T05:51:29.277Z,61.78
2022-10-11T05:53:58.733Z,58.05
2022-10-11T05:56:27.011Z,57.15
2022-10-11T05:59:02.159Z,58.39
2022-10-11T06:01:30.606Z,59.25
2022-10-11T06:04:00.802Z,60.76
2022-10-11T06:06:28.951Z,64.41
2022-10-11T06:08:59.060Z,64.81
2022-10-11T06:11:28.048Z,61.21
2022-10-11T06:14:00.708Z,57.19
2022-10-11T06:16:28.649Z,56.15
2022-10-11T06:18:59.399Z,57.69
2022-10-11T06:21:27.226Z,58.21
2022-10-11T06:24:01.316Z,59.98
2022-10-11T06:26:30.163Z,59.99
2022-10-11T06:28:59.357Z,61.10
2022-10-11T06:31:27.280Z,63.07
2022-10-11T06:33:56.042Z,63.74
2022-10-11T06:36:24.558Z,61.20
2022-10-11T06:38:53.722Z,56.44
2022-10-11T06:41:24.024Z,56.09
2022-10-11T06:43:51.949Z,56.63
2022-10-11T06:46:21.831Z,58.04
2022-10-11T06:48:50.723Z,59.03
2022-10-11T06:51:20.542Z,60.79
2022-10-11T06:53:51.779Z,61.26
2022-10-11T06:56:20.568Z,64.08
2022-10-11T06:58:52.106Z,64.43
2022-10-11T07:01:21.819Z,60.45
2022-10-11T07:03:51.666Z,56.46
2022-10-11T07:06:22.384Z,55.06
2022-10-11T07:08:50.298Z,56.37
2022-10-11T07:11:24.652Z,57.64
2022-10-11T07:13:55.078Z,58.92
2022-10-11T07:16:24.281Z,58.83
2022-10-11T07:18:59.563Z,61.07
2022-10-11T07:21:29.863Z,61.46
2022-10-11T07:23:58.163Z,60.87
2022-10-11T07:26:26.326Z,61.56
2022-10-11T07:28:55.872Z,63.11
2022-10-11T07:31:25.505Z,63.37
2022-10-11T07:33:54.039Z,58.36
2022-10-11T07:36:23.788Z,55.80
2022-10-11T07:38:51.869Z,55.91
2022-10-11T07:41:21.349Z,57.34
2022-10-11T07:43:51.004Z,58.39
2022-10-11T07:46:19.073Z,59.02
2022-10-11T07:48:47.055Z,58.45
2022-10-11T07:51:18.662Z,58.39
2022-10-11T07:53:57.152Z,58.17
2022-10-11T07:56:29.049Z,58.24
2022-10-11T07:59:03.614Z,59.78
2022-10-11T08:01:33.660Z,59.27
2022-10-11T08:04:01.760Z,58.67
2022-10-11T08:06:32.509Z,58.84
2022-10-11T08:09:02.158Z,59.45
2022-10-11T08:11:36.187Z,58.67
2022-10-11T08:14:08.802Z,59.19
2022-10-11T08:16:41.625Z,59.01
2022-10-11T08:19:11.630Z,59.41
2022-10-11T08:21:41.389Z,58.99
2022-10-11T08:24:15.216Z,58.53
2022-10-11T08:26:47.397Z,58.01
2022-10-11T08:29:15.555Z,58.56
2022-10-11T08:31:44.901Z,58.09
2022-10-11T08:34:14.235Z,57.31
2022-10-11T08:36:42.322Z,56.91
2022-10-11T08:39:12.319Z,56.61
2022-10-11T08:42:04.407Z,55.71
2022-10-11T08:45:09.630Z,54.52
2022-10-11T08:47:40.323Z,54.45
2022-10-11T08:50:19.910Z,51.64
2022-10-11T08:52:56.815Z,52.97
2022-10-11T08:55:29.108Z,51.34
2022-10-11T08:58:02.315Z,51.91
2022-10-11T09:00:32.232Z,50.65
2022-10-11T09:03:38.920Z,50.80
2022-10-11T09:06:22.624Z,49.85
2022-10-11T09:09:01.087Z,48.57
2022-10-11T09:12:09.117Z,49.15
2022-10-11T09:14:49.304Z,49.23
2022-10-11T09:17:17.288Z,47.74
2022-10-11T09:20:13.531Z,48.23
2022-10-11T09:22:50.784Z,47.60
2022-10-11T09:25:33.913Z,46.68
2022-10-11T09:28:23.915Z,44.87
2022-10-11T09:30:55.045Z,43.78
2022-10-11T09:33:40.636Z,45.96
2022-10-11T09:36:41.917Z,46.46
2022-10-11T09:39:27.704Z,47.29
2022-10-11T09:42:03.193Z,47.29
2022-10-11T09:44:41.558Z,45.77
2022-10-11T09:47:14.629Z,46.07
2022-10-11T09:50:08.165Z,45.54
2022-10-11T10:08:31.431Z,44.79
2022-10-11T10:11:38.722Z,42.91
2022-10-11T10:15:11.348Z,42.75
2022-10-11T10:17:57.831Z,41.64
2022-10-11T10:21:06.438Z,40.42
2022-10-11T10:23:39.473Z,40.30
2022-10-11T10:26:34.762Z,40.27
2022-10-11T10:34:16.161Z,40.15
2022-10-11T10:37:10.916Z,40.98
2022-10-11T10:41:13.472Z,40.70
2022-10-11T10:44:13.965Z,40.48
2022-10-11T10:47:30.377Z,39.74
2022-10-11T10:50:38.832Z,38.92
2022-10-11T10:57:00.450Z,39.00
2022-10-11T10:57:12.027Z,40.17
2022-10-11T11:04:37.962Z,40.49
2022-10-11T11:07:35.765Z,39.29
2022-10-11T11:14:30.380Z,36.86
2022-10-11T11:17:11.318Z,36.31
2022-10-11T11:19:49.468Z,36.49
2022-10-11T11:22:35.819Z,35.40
2022-10-11T11:25:28.351Z,35.14
2022-10-11T11:28:04.220Z,35.06
2022-10-11T11:30:45.475Z,34.55
2022-10-11T11:34:02.322Z,33.83
2022-10-11T11:41:21.186Z,34.99
2022-10-11T11:45:09.230Z,34.10
2022-10-11T11:48:18.869Z,34.47
2022-10-11T11:51:52.545Z,34.38
2022-10-11T11:56:01.972Z,34.23
2022-10-11T11:58:37.946Z,33.45
2022-10-11T12:01:09.098Z,33.35
2022-10-11T12:03:42.018Z,33.77
2022-10-11T12:06:30.282Z,32.95
2022-10-11T12:09:16.375Z,34.04
2022-10-11T12:11:59.148Z,33.43
2022-10-11T12:14:45.264Z,33.95
2022-10-11T12:17:23.446Z,34.11
2022-10-11T12:20:09.395Z,33.91
2022-10-11T12:22:49.474Z,33.72
2022-10-11T12:25:23.135Z,31.80
2022-10-11T12:27:57.003Z,32.03
2022-10-11T12:30:44.101Z,32.76
2022-10-11T12:33:24.628Z,32.31
2022-10-11T12:35:55.531Z,32.19
2022-10-11T12:38:26.103Z,32.55
2022-10-11T12:41:18.222Z,32.83
2022-10-11T12:43:48.798Z,32.23
2022-10-11T12:46:29.014Z,32.24
2022-10-11T12:49:05.853Z,32.88
2022-10-11T12:51:42.511Z,32.70
2022-10-11T12:54:37.402Z,32.98
2022-10-11T12:57:11.846Z,33.64
2022-10-11T12:59:45.108Z,33.43
2022-10-11T13:02:39.378Z,32.69
2022-10-11T13:05:16.136Z,31.39
2022-10-11T13:07:45.106Z,31.36
2022-10-11T13:10:20.599Z,31.66
2022-10-11T13:12:49.146Z,30.60
2022-10-11T13:15:19.451Z,30.63
2022-10-11T13:17:48.803Z,30.14
2022-10-11T13:20:19.837Z,30.23
2022-10-11T13:22:53.100Z,29.63
2022-10-11T13:25:29.519Z,28.67
2022-10-11T13:27:59.537Z,28.82
2022-10-11T13:30:34.267Z,28.39
2022-10-11T13:33:06.498Z,27.93
2022-10-11T13:35:36.492Z,27.54
2022-10-11T13:38:08.754Z,26.91
2022-10-11T13:40:37.734Z,25.89
2022-10-11T13:43:05.817Z,25.53
2022-10-11T13:45:36.914Z,25.11
2022-10-11T13:48:05.208Z,24.23
2022-10-11T13:50:34.453Z,23.45
2022-10-11T13:53:05.338Z,23.81
2022-10-11T13:55:57.321Z,23.29
2022-10-11T13:58:30.654Z,22.41
2022-10-11T14:01:01.492Z,22.33
2022-10-11T14:03:41.330Z,23.10
2022-10-11T14:06:09.731Z,23.45
2022-10-11T14:08:59.434Z,24.33
2022-10-11T14:11:36.851Z,24.72
2022-10-11T14:14:32.883Z,23.76
2022-10-11T14:17:12.289Z,23.40
2022-10-11T14:19:40.913Z,22.38
2022-10-11T14:22:17.052Z,21.81
2022-10-11T14:24:48.232Z,21.64
2022-10-11T14:27:21.954Z,20.67
2022-10-11T14:30:12.916Z,20.02
2022-10-11T14:32:39.919Z,19.42
2022-10-11T14:35:24.588Z,19.45
2022-10-11T14:37:52.912Z,19.07
2022-10-11T14:40:24.205Z,19.16
2022-10-11T14:42:52.165Z,19.68
2022-10-11T14:45:21.390Z,19.84
2022-10-11T14:47:49.774Z,19.83
2022-10-11T14:50:28.636Z,19.01
2022-10-11T14:52:57.301Z,18.71
2022-10-11T14:55:25.254Z,18.70
2022-10-11T14:57:53.106Z,19.19
2022-10-11T15:00:24.299Z,18.22
2022-10-11T15:02:55.283Z,18.01
2022-10-11T15:05:26.910Z,18.02
2022-10-11T15:07:57.741Z,18.25
2022-10-11T15:10:28.339Z,18.10
2022-10-11T15:12:56.855Z,17.94
2022-10-11T15:15:26.485Z,17.93
2022-10-11T15:17:57.303Z,17.99
2022-10-11T15:20:35.955Z,17.88
2022-10-11T15:23:04.688Z,17.79
2022-10-11T15:25:32.479Z,18.05
2022-10-11T15:28:00.520Z,18.78
2022-10-11T15:30:31.658Z,19.87
2022-10-11T15:32:59.601Z,21.49
2022-10-11T15:35:27.850Z,23.49
2022-10-11T15:37:58.251Z,25.38
2022-10-11T15:40:36.941Z,26.50
2022-10-11T15:43:05.246Z,28.86
2022-10-11T15:45:34.212Z,30.59
2022-10-11T15:48:02.099Z,32.40
2022-10-11T15:50:39.403Z,34.31
2022-10-11T15:53:10.476Z,35.79
2022-10-11T15:55:49.512Z,37.18
2022-10-11T15:58:19.283Z,38.42
2022-10-11T16:00:48.660Z,39.14
2022-10-11T16:03:17.684Z,40.14
2022-10-11T16:05:45.565Z,40.86
2022-10-11T16:08:14.217Z,41.56
2022-10-11T16:10:42.185Z,42.24
2022-10-11T16:13:10.733Z,43.00
2022-10-11T16:15:40.888Z,43.76
2022-10-11T16:18:10.776Z,43.93
2022-10-11T16:20:39.828Z,44.76
2022-10-11T16:23:08.069Z,45.34
2022-10-11T16:25:39.312Z,45.98
2022-10-11T16:28:08.189Z,46.88
2022-10-11T16:30:45.214Z,47.73
2022-10-11T16:33:13.365Z,48.63
2022-10-11T16:35:41.794Z,49.43
2022-10-11T16:38:10.547Z,49.95
2022-10-11T16:40:39.994Z,51.69
2022-10-11T16:43:08.314Z,52.40
2022-10-11T16:45:36.357Z,51.72
2022-10-11T16:48:04.865Z,51.67
2022-10-11T16:50:38.317Z,52.00
2022-10-11T16:53:07.430Z,52.22
2022-10-11T16:55:35.364Z,53.07
2022-10-11T16:58:03.134Z,53.73
2022-10-11T17:00:30.991Z,54.10
2022-10-11T17:02:59.225Z,54.46
2022-10-11T17:05:27.017Z,54.98
2022-10-11T17:07:54.826Z,55.28
2022-10-11T17:10:39.291Z,55.51
2022-10-11T17:13:07.501Z,55.65
2022-10-11T17:15:36.148Z,56.10
2022-10-11T17:18:04.002Z,56.43
2022-10-11T17:20:32.295Z,56.84
2022-10-11T17:23:00.049Z,56.98
2022-10-11T17:25:28.210Z,57.77
2022-10-11T17:27:56.939Z,58.12
2022-10-11T17:30:26.295Z,58.65
2022-10-11T17:32:54.286Z,58.69
2022-10-11T17:35:22.020Z,58.82
2022-10-11T17:37:50.143Z,58.78
2022-10-11T17:40:18.590Z,59.43
2022-10-11T17:42:47.785Z,59.85
2022-10-11T17:45:15.939Z,60.39
2022-10-11T17:47:44.039Z,60.41
2022-10-11T17:50:11.837Z,60.48
2022-10-11T17:52:39.635Z,60.72
2022-10-11T17:55:07.857Z,60.58
2022-10-11T17:57:35.660Z,60.83
2022-10-11T18:00:05.304Z,61.11
2022-10-11T18:02:34.633Z,61.50
2022-10-11T18:05:04.271Z,61.85
2022-10-11T18:07:32.339Z,61.40
2022-10-11T18:10:00.549Z,61.28
2022-10-11T18:12:28.404Z,61.80
2022-10-11T18:14:56.303Z,65.35
2022-10-11T18:17:24.077Z,64.47
2022-10-11T18:19:51.899Z,58.19
2022-10-11T18:22:19.784Z,55.34
2022-10-11T18:24:48.784Z,55.94
2022-10-11T18:27:16.622Z,57.00
2022-10-11T18:29:44.399Z,57.35
2022-10-11T18:32:12.222Z,58.01
2022-10-11T18:34:40.113Z,58.59
2022-10-11T18:37:08.491Z,58.71
2022-10-11T18:39:36.255Z,59.10
2022-10-11T18:42:04.684Z,59.64
2022-10-11T18:44:32.712Z,60.21
2022-10-11T18:47:00.570Z,60.57
2022-10-11T18:49:28.468Z,60.61
2022-10-11T18:51:57.122Z,60.59
2022-10-11T18:54:24.962Z,60.48
2022-10-11T18:56:52.905Z,60.40
2022-10-11T18:59:20.671Z,60.52
2022-10-11T19:01:52.079Z,60.73
2022-10-11T19:04:20.339Z,60.73
2022-10-11T19:06:48.721Z,60.98
2022-10-11T19:09:22.444Z,60.99
2022-10-11T19:11:52.066Z,61.20
2022-10-11T19:14:22.370Z,61.37
2022-10-11T19:16:51.718Z,61.83
2022-10-11T19:19:21.224Z,61.87
2022-10-11T19:21:49.489Z,61.72
2022-10-11T19:24:18.831Z,61.87
2022-10-11T19:26:47.407Z,65.42
2022-10-11T19:29:19.133Z,66.26
2022-10-11T19:31:52.067Z,60.78
2022-10-11T19:34:21.372Z,54.66
2022-10-11T19:36:53.420Z,53.37
2022-10-11T19:39:22.291Z,54.45
2022-10-11T19:41:50.569Z,55.33
2022-10-11T19:44:18.882Z,56.30
2022-10-11T19:46:52.091Z,56.98
2022-10-11T19:49:24.916Z,56.95
2022-10-11T19:51:55.224Z,57.29
2022-10-11T19:54:24.270Z,57.96
2022-10-11T19:56:53.615Z,58.77
2022-10-11T19:59:21.535Z,59.34
2022-10-11T20:01:52.767Z,59.82
2022-10-11T20:07:10.766Z,60.94
2022-10-11T20:09:38.699Z,61.05
2022-10-11T20:12:07.382Z,60.81
2022-10-11T20:14:35.157Z,61.04
2022-10-11T20:17:02.919Z,61.80
2022-10-11T20:19:31.290Z,64.92
2022-10-11T20:22:01.055Z,65.80
2022-10-11T20:24:32.975Z,60.08
2022-10-11T20:27:03.769Z,54.36
2022-10-11T20:29:31.661Z,53.59
2022-10-11T20:32:00.227Z,54.51
2022-10-11T20:34:28.384Z,55.28
2022-10-11T20:36:56.382Z,56.45
2022-10-11T20:39:24.203Z,56.85
2022-10-11T20:41:52.141Z,57.66
2022-10-11T20:44:19.951Z,58.18
2022-10-11T20:46:47.761Z,58.51
2022-10-11T20:49:15.600Z,59.04
2022-10-11T20:51:43.971Z,59.66
2022-10-11T20:54:12.062Z,59.74
2022-10-11T20:56:39.887Z,60.16
2022-10-11T20:59:08.601Z,60.45
2022-10-11T21:01:40.843Z,60.56
2022-10-11T21:04:17.569Z,61.03
2022-10-11T21:06:45.882Z,61.28
2022-10-11T21:09:15.677Z,61.49
2022-10-11T21:11:45.129Z,61.75
2022-10-11T21:14:13.239Z,65.45
2022-10-11T21:16:41.022Z,65.82
2022-10-11T21:19:12.787Z,59.91
2022-10-11T21:21:40.670Z,53.56
2022-10-11T21:24:08.558Z,52.64
2022-10-11T21:26:36.385Z,53.25
2022-10-11T21:29:04.341Z,54.86
2022-10-11T21:31:34.231Z,55.92
2022-10-11T21:34:04.980Z,56.78
2022-10-11T21:36:33.075Z,57.47
2022-10-11T21:39:00.852Z,57.80
2022-10-11T21:41:31.598Z,58.18
2022-10-11T21:43:59.523Z,58.67
2022-10-11T21:46:54.230Z,58.94
2022-10-11T21:49:17.394Z,59.19
2022-10-11T21:51:45.336Z,59.85
2022-10-11T21:54:13.207Z,60.16
2022-10-11T21:56:40.957Z,60.42
2022-10-11T21:59:12.066Z,60.68
2022-10-11T22:01:41.658Z,60.96
2022-10-11T22:04:10.564Z,61.04
2022-10-11T22:06:39.355Z,61.47
2022-10-11T22:09:08.269Z,61.55
2022-10-11T22:11:36.533Z,62.04
2022-10-11T22:14:04.469Z,62.17
2022-10-11T22:16:33.302Z,66.56
2022-10-11T22:19:01.005Z,66.03
2022-10-11T22:21:28.809Z,60.20
2022-10-11T22:23:56.703Z,53.28
2022-10-11T22:26:26.983Z,51.96
2022-10-11T22:28:54.713Z,52.99
2022-10-11T22:31:23.301Z,54.13
2022-10-11T22:33:58.488Z,55.16
2022-10-11T22:36:27.364Z,56.46
2022-10-11T22:38:55.098Z,57.32
2022-10-11T22:41:23.245Z,58.35
2022-10-11T22:43:51.272Z,58.56
2022-10-11T22:46:19.028Z,58.94
2022-10-11T22:48:46.878Z,59.13
2022-10-11T22:51:14.677Z,59.50
2022-10-11T22:53:42.780Z,59.85
2022-10-11T22:56:11.232Z,60.27
2022-10-11T22:58:38.986Z,60.38
2022-10-11T23:01:40.748Z,60.66
2022-10-11T23:04:08.793Z,60.76
2022-10-11T23:06:36.579Z,60.82
2022-10-11T23:09:04.867Z,61.24
2022-10-11T23:11:32.597Z,61.54
2022-10-11T23:14:00.347Z,61.88
2022-10-11T23:16:28.147Z,65.83
2022-10-11T23:18:55.951Z,65.91
2022-10-11T23:21:23.815Z,59.15
2022-10-11T23:23:55.322Z,53.15
2022-10-11T23:26:23.264Z,53.04
2022-10-11T23:28:54.633Z,54.01
2022-10-11T23:31:22.565Z,55.38
2022-10-11T23:33:50.299Z,56.38
2022-10-11T23:36:23.491Z,57.19
2022-10-11T23:38:58.591Z,57.51
2022-10-11T23:41:28.308Z,57.81
2022-10-11T23:43:56.624Z,58.26
2022-10-11T23:46:28.398Z,58.85
2022-10-11T23:48:56.324Z,59.00
2022-10-11T23:51:24.370Z,59.17
2022-10-11T23:53:52.334Z,59.53
2022-10-11T23:56:20.184Z,60.05
2022-10-11T23:58:48.040Z,60.35
